Time;durP1;ratioP1;P1;durP2;ratioP2;P2;SDS_P1;SDS_P2;PMS_P1;PMS_P2;Temp;Humidity;BMP_temperature;BMP_pressure;BME280_temperature;BME280_humidity;BME280_pressure;Samples;Min_cycle;Max_cycle;Signal;HPM_P1;HPM_P2
2023/05/02 00:00:50;;;;;;;4.13;3.73;;;;;;;;;;5099257;28;20220;-85
2023/05/02 00:03:17;;;;;;;5.50;3.60;;;;;;;;;;5109665;28;20333;-85
2023/05/02 00:05:44;;;;;;;4.10;3.80;;;;;;;;;;5101132;28;20254;-84
2023/05/02 00:08:12;;;;;;;3.73;3.30;;;;;;;;;;5109764;28;20206;-85
2023/05/02 00:10:39;;;;;;;4.20;3.80;;;;;;;;;;5109359;27;20224;-85
2023/05/02 00:13:06;;;;;;;4.33;3.90;;;;;;;;;;5093556;28;20299;-85
2023/05/02 00:15:34;;;;;;;4.47;3.80;;;;;;;;;;5093013;28;20315;-85
2023/05/02 00:18:01;;;;;;;4.97;3.57;;;;;;;;;;5100835;28;20192;-84
2023/05/02 00:20:28;;;;;;;3.63;3.33;;;;;;;;;;5113393;27;20244;-85
2023/05/02 00:22:56;;;;;;;4.20;3.80;;;;;;;;;;5113723;28;20204;-84
2023/05/02 00:25:23;;;;;;;4.23;3.83;;;;;;;;;;5113183;27;20260;-85
2023/05/02 00:27:51;;;;;;;4.97;4.17;;;;;;;;;;5093319;28;20204;-84
2023/05/02 00:30:19;;;;;;;6.20;3.70;;;;;;;;;;5092906;28;20237;-85
2023/05/02 00:32:48;;;;;;;3.70;3.40;;;;;;;;;;5109738;28;20210;-85
2023/05/02 00:35:15;;;;;;;3.67;3.33;;;;;;;;;;5113066;27;20244;-84
2023/05/02 00:37:42;;;;;;;3.47;3.23;;;;;;;;;;5113816;28;20219;-85
2023/05/02 00:40:09;;;;;;;4.17;3.17;;;;;;;;;;5112810;27;20228;-84
2023/05/02 00:42:36;;;;;;;3.70;3.40;;;;;;;;;;5113188;28;20674;-84
2023/05/02 00:45:05;;;;;;;4.20;3.43;;;;;;;;;;5113058;27;20227;-84
2023/05/02 00:47:32;;;;;;;6.17;3.60;;;;;;;;;;5113491;28;20254;-85
2023/05/02 00:50:01;;;;;;;4.23;3.57;;;;;;;;;;5112688;27;20260;-84
2023/05/02 00:52:28;;;;;;;4.03;3.60;;;;;;;;;;5111765;28;20208;-85
2023/05/02 00:54:55;;;;;;;3.47;3.20;;;;;;;;;;5101954;28;20239;-84
2023/05/02 00:57:22;;;;;;;3.97;3.57;;;;;;;;;;5106794;28;20208;-85
2023/05/02 00:59:50;;;;;;;3.73;3.50;;;;;;;;;;5102871;28;20621;-85
2023/05/02 01:02:23;;;;;;;4.60;3.33;;;;;;;;;;5096642;28;20216;-85
2023/05/02 01:04:54;;;;;;;4.13;3.77;;;;;;;;;;5110183;27;20666;-85
2023/05/02 01:07:28;;;;;;;3.70;3.40;;;;;;;;;;5113118;28;20192;-84
2023/05/02 01:10:02;;;;;;;4.23;3.83;;;;;;;;;;5106170;28;20228;-84
2023/05/02 01:12:33;;;;;;;3.50;3.30;;;;;;;;;;5092926;28;20193;-85
2023/05/02 01:15:02;;;;;;;4.43;4.03;;;;;;;;;;5092635;28;20239;-85
2023/05/02 01:17:32;;;;;;;4.80;3.67;;;;;;;;;;5099428;28;20228;-85
2023/05/02 01:20:00;;;;;;;4.30;3.90;;;;;;;;;;5091689;28;20228;-85
2023/05/02 01:22:29;;;;;;;4.83;3.80;;;;;;;;;;5092087;28;20658;-84
2023/05/02 01:25:02;;;;;;;4.73;4.13;;;;;;;;;;5091736;28;20256;-85
2023/05/02 01:27:35;;;;;;;3.60;3.37;;;;;;;;;;5092584;28;20193;-85
2023/05/02 01:30:05;;;;;;;4.33;3.93;;;;;;;;;;5092771;28;20592;-85
2023/05/02 01:32:33;;;;;;;4.77;4.37;;;;;;;;;;5102615;28;20220;-85
2023/05/02 01:35:02;;;;;;;4.73;4.33;;;;;;;;;;5111737;27;20239;-84
2023/05/02 01:37:29;;;;;;;4.67;4.27;;;;;;;;;;5112698;28;20200;-85
2023/05/02 01:39:57;;;;;;;4.63;4.23;;;;;;;;;;5111969;27;20593;-84
2023/05/02 01:42:26;;;;;;;4.43;4.03;;;;;;;;;;5112221;28;20207;-84
2023/05/02 01:44:55;;;;;;;4.43;3.97;;;;;;;;;;5111820;27;20232;-85
2023/05/02 01:47:25;;;;;;;4.77;4.37;;;;;;;;;;5112170;28;20200;-85
2023/05/02 01:49:52;;;;;;;4.33;3.93;;;;;;;;;;5111982;27;20238;-85
2023/05/02 01:52:21;;;;;;;4.73;4.33;;;;;;;;;;5112391;28;20205;-85
2023/05/02 01:54:48;;;;;;;4.73;4.30;;;;;;;;;;5111808;27;20757;-84
2023/05/02 01:57:16;;;;;;;4.17;3.87;;;;;;;;;;5111990;28;20701;-85
2023/05/02 01:59:44;;;;;;;4.30;3.90;;;;;;;;;;5111089;27;20211;-85
2023/05/02 02:02:12;;;;;;;6.07;4.40;;;;;;;;;;5112287;28;20239;-85
2023/05/02 02:04:41;;;;;;;4.80;4.30;;;;;;;;;;5111737;27;20204;-85
2023/05/02 02:07:10;;;;;;;4.40;4.00;;;;;;;;;;5112571;28;20235;-85
2023/05/02 02:09:37;;;;;;;5.20;4.63;;;;;;;;;;5111380;27;20196;-85
2023/05/02 02:12:06;;;;;;;5.30;4.80;;;;;;;;;;5112290;28;20204;-85
2023/05/02 02:14:35;;;;;;;5.20;4.67;;;;;;;;;;5111489;27;20211;-85
2023/05/02 02:17:04;;;;;;;5.27;4.77;;;;;;;;;;5095146;28;20701;-85
2023/05/02 02:19:32;;;;;;;5.33;4.83;;;;;;;;;;5107417;27;20196;-84
2023/05/02 02:22:01;;;;;;;5.47;4.60;;;;;;;;;;5112010;28;20669;-85
2023/05/02 02:24:28;;;;;;;5.50;5.00;;;;;;;;;;5111274;27;20203;-85
2023/05/02 02:26:56;;;;;;;5.87;5.37;;;;;;;;;;5101503;28;20220;-85
2023/05/02 02:29:23;;;;;;;5.67;5.17;;;;;;;;;;5109626;28;20294;-85
2023/05/02 02:31:50;;;;;;;6.00;5.40;;;;;;;;;;5101416;27;20228;-85
2023/05/02 02:34:17;;;;;;;7.93;5.90;;;;;;;;;;5094312;28;20200;-85
2023/05/02 02:36:46;;;;;;;7.00;6.30;;;;;;;;;;5094903;28;20232;-85
2023/05/02 02:39:18;;;;;;;6.83;6.13;;;;;;;;;;5097181;28;20609;-84
2023/05/02 02:41:50;;;;;;;7.27;5.97;;;;;;;;;;5108940;27;20254;-85
2023/05/02 02:44:23;;;;;;;7.90;7.10;;;;;;;;;;5095575;28;20200;-84
2023/05/02 02:46:56;;;;;;;7.87;7.07;;;;;;;;;;5094788;28;20285;-85
2023/05/02 02:49:32;;;;;;;8.50;7.60;;;;;;;;;;5105542;28;20229;-85
2023/05/02 02:52:03;;;;;;;8.77;7.87;;;;;;;;;;5117588;27;20242;-85
2023/05/02 02:54:34;;;;;;;9.60;8.50;;;;;;;;;;5127745;27;20254;-84
2023/05/02 02:57:03;;;;;;;11.50;9.03;;;;;;;;;;5129165;27;20223;-85
2023/05/02 02:59:33;;;;;;;13.63;8.67;;;;;;;;;;5115253;28;20208;-85
2023/05/02 03:02:02;;;;;;;10.30;9.20;;;;;;;;;;5115646;28;20207;-85
2023/05/02 03:04:31;;;;;;;10.80;9.70;;;;;;;;;;5114733;28;20881;-85
2023/05/02 03:06:58;;;;;;;11.83;9.00;;;;;;;;;;5115553;28;20289;-85
2023/05/02 03:09:29;;;;;;;11.90;9.27;;;;;;;;;;5115545;28;20211;-85
2023/05/02 03:11:57;;;;;;;8.50;7.03;;;;;;;;;;5115181;28;20223;-85
2023/05/02 03:14:24;;;;;;;6.77;6.13;;;;;;;;;;5115061;28;20613;-85
2023/05/02 03:16:51;;;;;;;8.83;6.87;;;;;;;;;;5115397;27;20598;-88
2023/05/02 03:19:18;;;;;;;6.30;5.70;;;;;;;;;;5115380;28;20244;-88
2023/05/02 03:21:45;;;;;;;6.60;6.00;;;;;;;;;;5114850;28;20227;-88
2023/05/02 03:24:12;;;;;;;6.83;6.13;;;;;;;;;;5115471;28;20235;-88
2023/05/02 03:26:39;;;;;;;10.73;9.60;;;;;;;;;;5114395;28;20713;-90
2023/05/02 03:29:08;;;;;;;10.47;8.90;;;;;;;;;;5115063;28;20207;-88
2023/05/02 03:31:35;;;;;;;11.33;10.10;;;;;;;;;;5123495;27;20230;-87
2023/05/02 03:34:02;;;;;;;12.00;10.33;;;;;;;;;;5129060;27;20617;-87
2023/05/02 03:36:29;;;;;;;12.60;11.13;;;;;;;;;;5134598;27;20283;-87
2023/05/02 03:38:56;;;;;;;12.50;10.63;;;;;;;;;;5135799;27;20224;-87
2023/05/02 03:41:23;;;;;;;15.20;9.50;;;;;;;;;;5134799;27;20242;-87
2023/05/02 03:43:50;;;;;;;9.97;8.20;;;;;;;;;;5134981;27;20207;-87
2023/05/02 03:46:19;;;;;;;7.87;7.07;;;;;;;;;;5134571;27;20231;-87
2023/05/02 03:48:46;;;;;;;7.67;6.50;;;;;;;;;;5135590;27;20207;-87
2023/05/02 03:51:13;;;;;;;8.07;6.70;;;;;;;;;;5134557;27;20692;-87
2023/05/02 03:53:40;;;;;;;7.67;6.97;;;;;;;;;;5135158;27;20203;-87
2023/05/02 03:56:07;;;;;;;8.30;7.40;;;;;;;;;;5134444;27;20237;-87
2023/05/02 03:58:35;;;;;;;8.67;7.63;;;;;;;;;;5135114;27;20231;-87
2023/05/02 04:01:02;;;;;;;9.87;7.87;;;;;;;;;;5134401;27;20784;-87
2023/05/02 04:03:31;;;;;;;9.23;7.93;;;;;;;;;;5134985;27;20573;-87
2023/05/02 04:05:58;;;;;;;10.40;9.30;;;;;;;;;;5134884;27;20310;-87
2023/05/02 04:08:25;;;;;;;14.80;12.13;;;;;;;;;;5134742;27;20210;-87
2023/05/02 04:10:52;;;;;;;17.77;14.23;;;;;;;;;;5134729;27;20227;-89
2023/05/02 04:13:19;;;;;;;18.70;15.07;;;;;;;;;;5136481;27;20234;-89
2023/05/02 04:15:46;;;;;;;19.10;15.30;;;;;;;;;;5134681;27;20231;-89
2023/05/02 04:18:13;;;;;;;17.30;15.43;;;;;;;;;;5138106;27;20202;-88
2023/05/02 04:20:43;;;;;;;20.43;16.73;;;;;;;;;;5135504;27;20658;-88
2023/05/02 04:23:10;;;;;;;21.70;16.40;;;;;;;;;;5134540;27;20211;-88
2023/05/02 04:25:37;;;;;;;17.73;15.60;;;;;;;;;;5133943;27;20291;-88
2023/05/02 04:28:04;;;;;;;21.63;16.83;;;;;;;;;;5134631;27;20570;-88
2023/05/02 04:30:32;;;;;;;19.77;16.17;;;;;;;;;;5133942;27;20331;-88
2023/05/02 04:32:59;;;;;;;21.93;15.57;;;;;;;;;;5134132;27;20199;-89
2023/05/02 04:35:26;;;;;;;23.40;17.17;;;;;;;;;;5133872;27;20238;-90
2023/05/02 04:37:54;;;;;;;22.47;18.50;;;;;;;;;;5134645;27;20219;-89
2023/05/02 04:40:21;;;;;;;20.87;17.87;;;;;;;;;;5134069;27;20235;-90
2023/05/02 04:42:48;;;;;;;22.80;17.27;;;;;;;;;;5134634;27;20203;-89
2023/05/02 04:45:15;;;;;;;22.40;18.27;;;;;;;;;;5133698;27;20230;-90
2023/05/02 04:47:42;;;;;;;23.90;19.37;;;;;;;;;;5134548;27;20208;-89
2023/05/02 04:50:10;;;;;;;23.17;18.47;;;;;;;;;;5134513;27;20231;-89
2023/05/02 04:52:37;;;;;;;26.13;19.37;;;;;;;;;;5135620;27;20661;-89
2023/05/02 04:55:06;;;;;;;23.83;20.43;;;;;;;;;;5135878;27;20274;-89
2023/05/02 04:57:33;;;;;;;25.77;20.03;;;;;;;;;;5134977;27;20227;-88
2023/05/02 05:00:00;;;;;;;33.40;20.60;;;;;;;;;;5132363;27;20721;-88
2023/05/02 05:02:27;;;;;;;24.73;19.20;;;;;;;;;;5115905;28;20203;-88
2023/05/02 05:04:54;;;;;;;25.83;18.70;;;;;;;;;;5114549;27;20252;-88
2023/05/02 05:07:21;;;;;;;26.80;19.13;;;;;;;;;;5114989;28;20204;-88
2023/05/02 05:09:48;;;;;;;27.70;21.33;;;;;;;;;;5119823;27;20238;-87
2023/05/02 05:12:17;;;;;;;24.77;20.33;;;;;;;;;;5125702;28;20210;-89
2023/05/02 05:14:44;;;;;;;31.93;21.27;;;;;;;;;;5127097;27;20208;-89
2023/05/02 05:17:11;;;;;;;29.60;22.13;;;;;;;;;;5112948;28;20689;-89
2023/05/02 05:19:38;;;;;;;30.40;21.60;;;;;;;;;;5112317;27;20566;-88
2023/05/02 05:22:05;;;;;;;32.50;21.60;;;;;;;;;;5112677;28;20212;-89
2023/05/02 05:24:32;;;;;;;31.53;23.20;;;;;;;;;;5112510;27;20207;-85
2023/05/02 05:26:59;;;;;;;32.60;23.47;;;;;;;;;;5112832;28;20220;-85
2023/05/02 05:29:28;;;;;;;29.57;22.40;;;;;;;;;;5112641;28;20208;-85
2023/05/02 05:31:55;;;;;;;32.67;22.30;;;;;;;;;;5112555;28;20224;-86
2023/05/02 05:34:23;;;;;;;32.80;23.80;;;;;;;;;;5112519;28;20196;-86
2023/05/02 05:36:51;;;;;;;33.57;23.57;;;;;;;;;;5111836;27;20717;-86
2023/05/02 05:39:18;;;;;;;32.50;24.40;;;;;;;;;;5112278;28;20581;-86
2023/05/02 05:41:45;;;;;;;33.00;24.87;;;;;;;;;;5111602;28;20720;-86
2023/05/02 05:44:12;;;;;;;35.43;24.50;;;;;;;;;;5112299;28;20287;-86
2023/05/02 05:46:40;;;;;;;32.60;24.60;;;;;;;;;;5111829;27;20243;-86
2023/05/02 05:49:07;;;;;;;35.80;24.53;;;;;;;;;;5112249;28;20640;-86
2023/05/02 05:51:35;;;;;;;31.17;23.43;;;;;;;;;;5111760;27;20743;-86
2023/05/02 05:54:02;;;;;;;31.00;23.40;;;;;;;;;;5112170;28;20692;-86
2023/05/02 05:56:29;;;;;;;36.07;24.33;;;;;;;;;;5111582;27;20238;-86
2023/05/02 05:58:56;;;;;;;33.73;24.50;;;;;;;;;;5112409;28;20294;-86
2023/05/02 06:01:24;;;;;;;37.23;25.67;;;;;;;;;;5111664;27;20228;-86
2023/05/02 06:03:52;;;;;;;32.73;24.77;;;;;;;;;;5112291;28;20212;-86
2023/05/02 06:06:19;;;;;;;32.50;25.10;;;;;;;;;;5111523;27;20240;-86
2023/05/02 06:08:46;;;;;;;34.43;24.30;;;;;;;;;;5115717;28;20196;-86
2023/05/02 06:11:13;;;;;;;36.57;25.57;;;;;;;;;;5115788;27;20231;-86
2023/05/02 06:13:40;;;;;;;31.07;23.10;;;;;;;;;;5116513;28;20223;-87
2023/05/02 06:16:07;;;;;;;36.23;25.40;;;;;;;;;;5116211;27;20236;-87
2023/05/02 06:18:34;;;;;;;33.40;24.17;;;;;;;;;;5117899;28;20223;-86
2023/05/02 06:21:05;;;;;;;37.40;25.23;;;;;;;;;;5120411;27;20270;-85
2023/05/02 06:23:33;;;;;;;34.60;25.00;;;;;;;;;;5121046;28;20223;-86
2023/05/02 06:26:00;;;;;;;34.90;23.73;;;;;;;;;;5120766;28;20236;-86
2023/05/02 06:28:27;;;;;;;38.67;24.47;;;;;;;;;;5121415;28;20203;-86
2023/05/02 06:30:58;;;;;;;35.43;26.07;;;;;;;;;;5119912;27;20231;-86
2023/05/02 06:33:25;;;;;;;33.70;23.83;;;;;;;;;;5121645;28;20205;-88
2023/05/02 06:35:52;;;;;;;36.53;25.43;;;;;;;;;;5119912;27;20242;-86
2023/05/02 06:38:21;;;;;;;35.87;24.30;;;;;;;;;;5119826;28;20224;-86
2023/05/02 06:40:48;;;;;;;37.20;25.93;;;;;;;;;;5122950;28;20232;-89
2023/05/02 06:43:15;;;;;;;36.73;24.47;;;;;;;;;;5124255;28;20215;-89
2023/05/02 06:45:42;;;;;;;33.23;24.17;;;;;;;;;;5123861;27;20243;-89
2023/05/02 06:48:10;;;;;;;30.13;23.40;;;;;;;;;;5123447;28;20700;-89
2023/05/02 06:50:37;;;;;;;31.37;23.63;;;;;;;;;;5121658;27;20242;-88
2023/05/02 06:53:04;;;;;;;30.60;23.60;;;;;;;;;;5122563;28;20753;-89
2023/05/02 06:55:33;;;;;;;33.83;24.27;;;;;;;;;;5123029;27;20289;-90
2023/05/02 06:58:00;;;;;;;33.20;24.00;;;;;;;;;;5123596;28;20646;-88
2023/05/02 07:00:27;;;;;;;28.60;22.20;;;;;;;;;;5122893;27;20238;-88
2023/05/02 07:02:55;;;;;;;30.63;22.57;;;;;;;;;;5123130;28;20200;-88
2023/05/02 07:05:22;;;;;;;32.67;22.47;;;;;;;;;;5122189;27;20301;-88
2023/05/02 07:07:49;;;;;;;29.87;22.03;;;;;;;;;;5123237;28;20204;-88
2023/05/02 07:10:16;;;;;;;27.27;21.73;;;;;;;;;;5119756;27;20243;-85
2023/05/02 07:12:45;;;;;;;28.73;21.33;;;;;;;;;;5118562;28;20203;-89
2023/05/02 07:15:13;;;;;;;29.67;20.47;;;;;;;;;;5122502;27;20244;-89
2023/05/02 07:17:40;;;;;;;29.27;21.07;;;;;;;;;;5124802;28;20297;-90
2023/05/02 07:20:08;;;;;;;23.97;18.83;;;;;;;;;;5123674;27;20232;-89
2023/05/02 07:22:35;;;;;;;28.80;20.13;;;;;;;;;;5124144;28;20192;-89
2023/05/02 07:25:03;;;;;;;27.97;20.17;;;;;;;;;;5123348;27;20232;-89
2023/05/02 07:27:30;;;;;;;29.87;21.67;;;;;;;;;;5124275;28;20207;-89
2023/05/02 07:29:58;;;;;;;29.47;20.13;;;;;;;;;;5121644;27;20227;-89
2023/05/02 07:32:26;;;;;;;25.50;18.33;;;;;;;;;;5122348;28;20204;-89
2023/05/02 07:34:54;;;;;;;26.63;18.43;;;;;;;;;;5122303;27;20230;-89
2023/05/02 07:37:22;;;;;;;26.97;19.40;;;;;;;;;;5122279;28;20235;-89
2023/05/02 07:39:49;;;;;;;23.20;17.97;;;;;;;;;;5122148;27;20238;-89
2023/05/02 07:42:16;;;;;;;24.20;18.93;;;;;;;;;;5123398;28;20204;-89
2023/05/02 07:44:43;;;;;;;22.50;18.17;;;;;;;;;;5123408;27;20263;-89
2023/05/02 07:47:12;;;;;;;25.10;18.90;;;;;;;;;;5124045;28;20224;-89
2023/05/02 07:49:39;;;;;;;24.77;18.83;;;;;;;;;;5122761;27;20208;-90
2023/05/02 07:52:06;;;;;;;24.17;17.53;;;;;;;;;;5123900;28;20212;-89
2023/05/02 07:54:33;;;;;;;23.83;17.50;;;;;;;;;;5121693;27;20290;-90
2023/05/02 07:57:02;;;;;;;23.83;18.83;;;;;;;;;;5123854;28;20238;-90
2023/05/02 07:59:29;;;;;;;22.27;17.80;;;;;;;;;;5122863;27;20623;-89
2023/05/02 08:01:56;;;;;;;21.80;17.53;;;;;;;;;;5123148;28;20204;-89
2023/05/02 08:04:25;;;;;;;24.33;17.40;;;;;;;;;;5123648;28;20207;-90
2023/05/02 08:06:52;;;;;;;23.03;17.70;;;;;;;;;;5123539;27;20240;-89
2023/05/02 08:09:19;;;;;;;22.37;17.57;;;;;;;;;;5124176;28;20212;-89
2023/05/02 08:11:46;;;;;;;24.90;19.33;;;;;;;;;;5123081;27;20236;-89
2023/05/02 08:14:13;;;;;;;22.73;17.43;;;;;;;;;;5123893;28;20204;-89
2023/05/02 08:16:40;;;;;;;22.53;17.27;;;;;;;;;;5125828;27;20245;-89
2023/05/02 08:19:09;;;;;;;26.40;19.40;;;;;;;;;;5124007;28;20224;-90
2023/05/02 08:21:38;;;;;;;24.27;17.87;;;;;;;;;;5123048;27;20228;-90
2023/05/02 08:24:05;;;;;;;20.80;16.17;;;;;;;;;;5123438;28;20661;-89
2023/05/02 08:26:32;;;;;;;21.87;16.80;;;;;;;;;;5123598;27;20236;-90
2023/05/02 08:28:59;;;;;;;22.53;17.17;;;;;;;;;;5121719;28;20200;-89
2023/05/02 08:31:27;;;;;;;26.27;17.13;;;;;;;;;;5119738;27;20232;-90
2023/05/02 08:33:54;;;;;;;23.67;17.90;;;;;;;;;;5122474;28;20226;-89
2023/05/02 08:36:21;;;;;;;22.37;17.87;;;;;;;;;;5122780;27;20636;-90
2023/05/02 08:38:49;;;;;;;21.90;18.43;;;;;;;;;;5123292;28;20224;-90
2023/05/02 08:41:17;;;;;;;23.20;18.73;;;;;;;;;;5122573;27;20228;-90
2023/05/02 08:43:44;;;;;;;20.17;16.97;;;;;;;;;;5123512;28;20204;-89
2023/05/02 08:46:12;;;;;;;24.57;17.50;;;;;;;;;;5121810;27;20247;-90
2023/05/02 08:48:40;;;;;;;23.00;17.57;;;;;;;;;;5123083;28;20200;-90
2023/05/02 08:51:09;;;;;;;23.53;16.97;;;;;;;;;;5122389;27;20232;-90
2023/05/02 08:53:37;;;;;;;22.23;18.27;;;;;;;;;;5122901;28;20233;-90
2023/05/02 08:56:06;;;;;;;18.70;13.87;;;;;;;;;;5122331;27;20231;-90
2023/05/02 08:58:33;;;;;;;17.30;13.13;;;;;;;;;;5123077;28;20224;-90
2023/05/02 09:01:02;;;;;;;22.47;13.17;;;;;;;;;;5122675;27;20243;-90
2023/05/02 09:03:30;;;;;;;17.50;12.50;;;;;;;;;;5123270;28;20627;-89
2023/05/02 09:06:04;;;;;;;15.67;11.97;;;;;;;;;;5122040;28;20262;-89
2023/05/02 09:08:31;;;;;;;17.87;14.07;;;;;;;;;;5122995;28;20200;-90
2023/05/02 09:10:58;;;;;;;21.37;14.83;;;;;;;;;;5122054;28;20239;-90
2023/05/02 09:13:30;;;;;;;18.37;14.20;;;;;;;;;;5122835;27;20259;-90
2023/05/02 09:15:59;;;;;;;17.97;14.43;;;;;;;;;;5121759;28;20243;-86
2023/05/02 09:18:29;;;;;;;17.43;14.50;;;;;;;;;;5117241;28;20252;-86
2023/05/02 09:20:56;;;;;;;18.37;14.27;;;;;;;;;;5116265;28;20239;-84
2023/05/02 09:23:32;;;;;;;16.63;13.60;;;;;;;;;;5117828;28;20215;-86
2023/05/02 09:25:59;;;;;;;15.83;12.67;;;;;;;;;;5115554;28;20255;-86
2023/05/02 09:28:40;;;;;;;20.23;14.93;;;;;;;;;;5116766;28;20290;-86
2023/05/02 09:31:08;;;;;;;20.07;13.93;;;;;;;;;;5116036;27;20240;-85
2023/05/02 09:33:35;;;;;;;17.60;12.93;;;;;;;;;;5115789;27;20200;-86
2023/05/02 09:36:02;;;;;;;18.53;13.80;;;;;;;;;;5115586;28;20247;-86
2023/05/02 09:38:30;;;;;;;19.73;13.73;;;;;;;;;;5115890;28;20255;-86
2023/05/02 09:40:57;;;;;;;17.47;13.17;;;;;;;;;;5116017;27;20666;-86
2023/05/02 09:43:24;;;;;;;18.60;13.73;;;;;;;;;;5115855;28;20207;-85
2023/05/02 09:45:59;;;;;;;19.77;13.30;;;;;;;;;;5115183;27;20231;-85
2023/05/02 09:48:27;;;;;;;17.87;12.37;;;;;;;;;;5116722;28;20204;-86
2023/05/02 09:50:54;;;;;;;13.00;10.00;;;;;;;;;;5115778;28;20232;-86
2023/05/02 09:53:23;;;;;;;13.17;10.20;;;;;;;;;;5115961;28;20299;-85
2023/05/02 09:55:59;;;;;;;13.57;9.50;;;;;;;;;;5115157;28;20243;-86
2023/05/02 09:58:26;;;;;;;11.87;8.63;;;;;;;;;;5115772;28;20231;-86
2023/05/02 10:00:53;;;;;;;11.67;9.20;;;;;;;;;;5116063;27;20300;-86
2023/05/02 10:03:23;;;;;;;11.93;8.83;;;;;;;;;;5116139;28;20207;-86
2023/05/02 10:05:52;;;;;;;15.63;10.07;;;;;;;;;;5115010;27;20244;-85
2023/05/02 10:08:20;;;;;;;10.60;8.20;;;;;;;;;;5115556;28;20204;-86
2023/05/02 10:10:48;;;;;;;10.27;8.33;;;;;;;;;;5115451;27;20235;-86
2023/05/02 10:13:17;;;;;;;10.70;8.30;;;;;;;;;;5115455;28;20207;-86
2023/05/02 10:15:45;;;;;;;11.93;8.40;;;;;;;;;;5113880;27;20242;-86
2023/05/02 10:18:13;;;;;;;12.23;8.43;;;;;;;;;;5114394;28;20252;-86
2023/05/02 10:20:44;;;;;;;11.27;9.07;;;;;;;;;;5114385;28;20235;-86
2023/05/02 10:23:12;;;;;;;14.07;9.17;;;;;;;;;;5114990;28;20193;-85
2023/05/02 10:25:39;;;;;;;14.70;9.43;;;;;;;;;;5114492;27;20246;-86
2023/05/02 10:28:06;;;;;;;13.67;9.50;;;;;;;;;;5115350;28;20208;-86
2023/05/02 10:30:34;;;;;;;16.20;9.30;;;;;;;;;;5114849;27;20239;-86
2023/05/02 10:33:02;;;;;;;15.07;10.53;;;;;;;;;;5116224;28;20207;-86
2023/05/02 10:35:29;;;;;;;15.10;10.60;;;;;;;;;;5115574;27;20322;-87
2023/05/02 10:37:59;;;;;;;14.60;10.13;;;;;;;;;;5116952;28;20249;-87
2023/05/02 10:40:26;;;;;;;13.37;10.40;;;;;;;;;;5116914;28;20588;-86
2023/05/02 10:42:53;;;;;;;14.53;9.73;;;;;;;;;;5115998;28;20207;-86
2023/05/02 10:45:34;;;;;;;10.77;8.30;;;;;;;;;;5115309;27;20289;-86
2023/05/02 10:48:15;;;;;;;10.60;7.57;;;;;;;;;;5115963;28;20199;-86
2023/05/02 10:50:47;;;;;;;9.07;7.23;;;;;;;;;;5113929;27;20243;-86
2023/05/02 10:53:25;;;;;;;10.23;7.67;;;;;;;;;;5114328;28;20206;-85
2023/05/02 10:56:20;;;;;;;10.87;7.57;;;;;;;;;;5116322;27;20292;-85
2023/05/02 10:58:49;;;;;;;10.37;7.10;;;;;;;;;;5092892;27;20708;-85
2023/05/02 11:01:36;;;;;;;8.67;7.10;;;;;;;;;;5117213;28;20287;-86
2023/05/02 11:04:04;;;;;;;9.27;6.83;;;;;;;;;;5117707;28;20246;-85
2023/05/02 11:06:33;;;;;;;9.57;6.80;;;;;;;;;;5116181;27;20235;-85
2023/05/02 11:09:18;;;;;;;9.82;6.82;;;;;;;;;;5116982;28;20219;-85
2023/05/02 11:11:48;;;;;;;9.23;6.93;;;;;;;;;;5115882;27;20236;-85
2023/05/02 11:14:39;;;;;;;11.75;7.50;;;;;;;;;;5117179;28;20211;-85
2023/05/02 11:17:07;;;;;;;8.52;6.45;;;;;;;;;;5137506;27;20701;-85
2023/05/02 11:19:49;;;;;;;7.80;5.78;;;;;;;;;;5136397;27;20223;-86
2023/05/02 11:22:43;;;;;;;7.65;6.07;;;;;;;;;;5117897;28;20214;-86
2023/05/02 11:25:29;;;;;;;7.25;6.07;;;;;;;;;;5109115;27;20236;-86
2023/05/02 11:27:57;;;;;;;7.28;5.70;;;;;;;;;;5118412;28;20220;-86
2023/05/02 11:30:37;;;;;;;9.15;6.15;;;;;;;;;;5118045;27;20289;-86
2023/05/02 11:33:17;;;;;;;6.90;6.15;;;;;;;;;;5118965;28;20203;-87
2023/05/02 11:35:45;;;;;;;9.95;6.40;;;;;;;;;;5118378;27;20235;-87
2023/05/02 11:38:13;;;;;;;10.18;7.50;;;;;;;;;;5118447;28;20291;-84
2023/05/02 11:40:40;;;;;;;6.72;5.63;;;;;;;;;;5114461;27;20281;-83
2023/05/02 11:43:15;;;;;;;7.25;5.57;;;;;;;;;;5114677;28;20200;-84
2023/05/02 11:45:42;;;;;;;9.27;6.65;;;;;;;;;;5114263;27;20606;-84
2023/05/02 11:48:10;;;;;;;8.15;6.13;;;;;;;;;;5114589;28;20666;-84
2023/05/02 11:50:42;;;;;;;9.23;6.78;;;;;;;;;;5113945;27;20228;-84
2023/05/02 11:53:11;;;;;;;8.52;6.07;;;;;;;;;;5114726;28;20192;-84
2023/05/02 11:55:38;;;;;;;6.63;5.90;;;;;;;;;;5114145;27;20243;-84
2023/05/02 11:58:05;;;;;;;7.70;5.85;;;;;;;;;;5117613;28;20575;-86
2023/05/02 12:00:35;;;;;;;7.78;5.88;;;;;;;;;;5117415;27;20250;-86
2023/05/02 12:03:03;;;;;;;8.80;6.53;;;;;;;;;;5118286;28;20208;-87
2023/05/02 12:05:30;;;;;;;6.65;5.68;;;;;;;;;;5118053;27;20235;-87
2023/05/02 12:07:57;;;;;;;6.75;5.50;;;;;;;;;;5119267;28;20630;-87
2023/05/02 12:10:24;;;;;;;9.15;5.95;;;;;;;;;;5118118;27;20778;-86
2023/05/02 12:12:51;;;;;;;7.72;5.78;;;;;;;;;;5117963;28;20741;-86
2023/05/02 12:15:18;;;;;;;6.78;5.43;;;;;;;;;;5116942;27;20235;-86
2023/05/02 12:17:50;;;;;;;7.40;5.63;;;;;;;;;;5116818;28;20207;-87
2023/05/02 12:20:18;;;;;;;6.38;5.50;;;;;;;;;;5116541;27;20709;-86
2023/05/02 12:22:46;;;;;;;5.93;4.65;;;;;;;;;;5116851;28;20208;-86
2023/05/02 12:25:13;;;;;;;7.57;5.45;;;;;;;;;;5116056;27;20238;-86
2023/05/02 12:27:40;;;;;;;7.13;5.05;;;;;;;;;;5115223;28;20207;-86
2023/05/02 12:30:07;;;;;;;6.60;5.55;;;;;;;;;;5113630;27;20243;-86
2023/05/02 12:32:35;;;;;;;6.20;5.53;;;;;;;;;;5113622;28;20200;-87
2023/05/02 12:35:04;;;;;;;9.52;5.85;;;;;;;;;;5112992;27;20223;-86
2023/05/02 12:37:31;;;;;;;8.05;5.30;;;;;;;;;;5113572;28;20211;-86
2023/05/02 12:39:58;;;;;;;7.60;6.07;;;;;;;;;;5113144;27;20239;-87
2023/05/02 12:42:27;;;;;;;7.10;5.75;;;;;;;;;;5113385;28;20692;-88
2023/05/02 12:44:55;;;;;;;6.10;5.50;;;;;;;;;;5113158;27;20297;-87
2023/05/02 12:47:23;;;;;;;7.97;5.18;;;;;;;;;;5113669;28;20294;-87
2023/05/02 12:49:50;;;;;;;7.43;5.43;;;;;;;;;;5112625;27;20228;-86
2023/05/02 12:52:19;;;;;;;6.60;4.93;;;;;;;;;;5113604;28;20204;-87
2023/05/02 12:54:47;;;;;;;6.82;4.95;;;;;;;;;;5113097;27;20211;-87
2023/05/02 12:57:23;;;;;;;5.13;4.60;;;;;;;;;;5113207;28;20737;-87
2023/05/02 12:59:52;;;;;;;4.80;4.15;;;;;;;;;;5112646;27;20259;-87
2023/05/02 13:02:19;;;;;;;6.00;4.50;;;;;;;;;;5113262;28;20638;-87
2023/05/02 13:04:47;;;;;;;5.18;4.53;;;;;;;;;;5113054;27;20207;-86
2023/05/02 13:07:14;;;;;;;6.45;4.30;;;;;;;;;;5113336;28;20238;-86
2023/05/02 13:09:42;;;;;;;5.30;4.05;;;;;;;;;;5112461;27;20231;-86
2023/05/02 13:12:09;;;;;;;5.45;4.35;;;;;;;;;;5112960;28;20204;-86
2023/05/02 13:14:36;;;;;;;4.88;4.07;;;;;;;;;;5112489;27;20291;-86
2023/05/02 13:17:03;;;;;;;6.40;4.50;;;;;;;;;;5113432;28;20224;-86
2023/05/02 13:19:31;;;;;;;6.22;4.95;;;;;;;;;;5116473;27;20315;-86
2023/05/02 13:21:58;;;;;;;4.82;4.13;;;;;;;;;;5117313;28;20235;-87
2023/05/02 13:24:25;;;;;;;5.10;3.85;;;;;;;;;;5116210;28;20549;-86
2023/05/02 13:26:53;;;;;;;6.15;4.32;;;;;;;;;;5115423;27;20712;-86
2023/05/02 13:29:20;;;;;;;7.65;4.68;;;;;;;;;;5115387;28;20200;-86
2023/05/02 13:31:47;;;;;;;6.82;4.68;;;;;;;;;;5114596;27;20236;-86
2023/05/02 13:34:14;;;;;;;3.55;3.00;;;;;;;;;;5115243;28;20196;-86
2023/05/02 13:36:44;;;;;;;3.40;2.97;;;;;;;;;;5114326;27;20239;-86
2023/05/02 13:39:12;;;;;;;2.88;2.65;;;;;;;;;;5114288;28;20258;-86
2023/05/02 13:41:39;;;;;;;3.75;3.22;;;;;;;;;;5114248;27;20314;-87
2023/05/02 13:44:08;;;;;;;4.88;3.33;;;;;;;;;;5115094;28;20230;-87
2023/05/02 13:46:36;;;;;;;4.18;3.03;;;;;;;;;;5113871;27;20243;-86
2023/05/02 13:49:03;;;;;;;3.47;3.17;;;;;;;;;;5114179;28;20203;-86
2023/05/02 13:51:31;;;;;;;3.40;3.00;;;;;;;;;;5114176;27;20228;-86
2023/05/02 13:53:58;;;;;;;4.00;3.50;;;;;;;;;;5115472;28;20212;-86
2023/05/02 13:56:25;;;;;;;3.90;3.50;;;;;;;;;;5114772;27;20247;-87
2023/05/02 13:58:52;;;;;;;4.72;3.05;;;;;;;;;;5114858;28;20207;-87
2023/05/02 14:01:21;;;;;;;5.72;3.55;;;;;;;;;;5114485;27;20232;-86
2023/05/02 14:03:48;;;;;;;5.57;3.25;;;;;;;;;;5113629;28;20211;-87
2023/05/02 14:06:15;;;;;;;4.40;3.50;;;;;;;;;;5113747;27;20344;-86
2023/05/02 14:08:42;;;;;;;3.90;3.50;;;;;;;;;;5114838;28;20208;-87
2023/05/02 14:11:10;;;;;;;4.30;3.20;;;;;;;;;;5113372;27;20242;-86
2023/05/02 14:13:37;;;;;;;3.70;3.38;;;;;;;;;;5113858;28;20298;-86
2023/05/02 14:16:05;;;;;;;4.13;3.67;;;;;;;;;;5113484;27;20239;-86
2023/05/02 14:18:33;;;;;;;3.55;3.25;;;;;;;;;;5114709;28;20204;-86
2023/05/02 14:21:01;;;;;;;3.33;3.00;;;;;;;;;;5113184;27;20615;-86
2023/05/02 14:23:29;;;;;;;3.40;3.10;;;;;;;;;;5113460;28;20576;-85
2023/05/02 14:25:56;;;;;;;3.92;3.40;;;;;;;;;;5113676;28;20239;-86
2023/05/02 14:28:23;;;;;;;4.07;3.05;;;;;;;;;;5117362;28;20199;-86
2023/05/02 14:30:50;;;;;;;3.72;3.33;;;;;;;;;;5119730;27;20223;-86
2023/05/02 14:33:17;;;;;;;4.03;3.30;;;;;;;;;;5123168;27;20222;-85
2023/05/02 14:35:46;;;;;;;4.13;3.72;;;;;;;;;;5136598;27;20238;-84
2023/05/02 14:38:13;;;;;;;5.97;3.40;;;;;;;;;;5137163;27;20570;-84